Lahaina, HI

10:12 PM HST on September 22, 2014 (GMT -1000)
Launiupoko | Change Station
CLOSE
Current Station
Personal Weather Station
Location: Lahaina, HI
Elevation: 801 ft
Nearby Weather Stations

Elev 801 ft 20.86 °N, 156.64 °W | Updated 6 minutes ago

Scattered Clouds
Scattered Clouds
78.9 °F
Feels Like 81 °F
N
1.0
Wind Variable Wind from SSE
Gusts 1.0 mph

Today
High -- | Low -- °F
--% Chance of Precip.
Yesterday
High -- | Low -- °F
Precip. -- in
6:15 AM 6:22 PM
Waning Crescent, 1% visible
Pressure 30.09 in
Visibility 10.0 miles
Clouds Scattered Clouds 3000 ft
Heat Index 81 °F
Dew Point 65 °F
Humidity 63%
Rainfall 0.00 in
Snow Depth Not available.
UV 0 out of 12
Pollen Not available.
Air Quality Not available.
Flu Activity Not available.
METAR PHOG 230754Z 04009KT 10SM SCT030 26/22 A3007 RMK AO2 SLP187 T02560217 $

More Conditions Fewer Conditions

Pressure 30.09 in
Visibility 10.0 miles
Clouds Scattered Clouds 3000 ft
Heat Index 81 °F
Dew Point 65 °F
Humidity 63%
Rainfall 0.00 in
Snow Depth Not available.
UV 0 out of 12
Pollen Not available.
Air Quality Not available.
Flu Activity Not available.
METAR PHOG 230754Z 04009KT 10SM SCT030 26/22 A3007 RMK AO2 SLP187 T02560217 $

More Conditions Fewer Conditions

10-Day Weather Forecast

Almanac

Astronomy

Sep. 22, 2014 Rise Set
Actual Time 6:15 AM HST 6:22 PM HST
Civil Twilight 5:53 AM HST 6:44 PM HST
Nautical Twilight 5:27 AM HST 7:10 PM HST
Astronomical Twilight 5:01 AM HST 7:36 PM HST
Moon 5:01 AM HST (9/22) 5:32 PM HST (9/22)
Length of Visible Light 12h 51m
Length of Day
12h 07m
Tomorrow will be 1m 12s shorter.
Waning Crescent, 1% of the Moon is Illuminated
Sep 23
Waning Crescent
Sep 24
New
Oct 1
First Quarter
Oct 8
Full
Oct 15
Last Quarter

Yesterday's Extremes

State Highs State Lows

Community

WunderPhotos

Upload Photos

1,755,608 photos uploaded!

Nearby

Snow Depth

Station Depth Elevation
No new snow has been reported.

Earthquake Activity

City Distance Mag. Time & Date
No recent earthquake activity has been reported nearby.
Minimum magnitude displayed is 2.5.

Coastal Water Temperatures

Place Temperature
No Stations Reporting

Nearby Weather Stations